Time;durP1;ratioP1;P1;durP2;ratioP2;P2;SDS_P1;SDS_P2;PMS_P1;PMS_P2;Temp;Humidity;BMP_temperature;BMP_pressure;BME280_temperature;BME280_humidity;BME280_pressure;Samples;Min_cycle;Max_cycle;Signal;HPM_P1;HPM_P2
2023/09/07 00:00:16;;;;;;;47.67;45.40;;;;;;;;;;5053957;28;20534;-40
2023/09/07 00:02:45;;;;;;;48.47;46.17;;;;;;;;;;5054042;28;20430;-40
2023/09/07 00:05:13;;;;;;;49.83;47.07;;;;;;;;;;5053396;28;20482;-40
2023/09/07 00:07:40;;;;;;;52.40;49.87;;;;;;;;;;5053889;28;20525;-40
2023/09/07 00:10:08;;;;;;;48.50;46.10;;;;;;;;;;5053711;28;20518;-41
2023/09/07 00:12:39;;;;;;;48.13;45.83;;;;;;;;;;5053390;28;20443;-40
2023/09/07 00:15:07;;;;;;;48.13;45.93;;;;;;;;;;5053226;28;20550;-40
2023/09/07 00:17:34;;;;;;;48.83;46.47;;;;;;;;;;5053666;28;20515;-42
2023/09/07 00:20:09;;;;;;;49.20;46.63;;;;;;;;;;5053598;28;20474;-40
2023/09/07 00:22:36;;;;;;;48.23;46.03;;;;;;;;;;5053155;28;20529;-41
2023/09/07 00:25:06;;;;;;;48.47;46.17;;;;;;;;;;5052003;28;20462;-41
2023/09/07 00:27:34;;;;;;;49.80;47.37;;;;;;;;;;5053328;28;20479;-40
2023/09/07 00:30:02;;;;;;;46.87;44.60;;;;;;;;;;5053685;28;20439;-40
2023/09/07 00:32:29;;;;;;;46.33;44.23;;;;;;;;;;5053322;28;20887;-41
2023/09/07 00:34:56;;;;;;;47.00;44.80;;;;;;;;;;5052797;28;20454;-40
2023/09/07 00:37:25;;;;;;;47.60;45.40;;;;;;;;;;5053325;28;20444;-41
2023/09/07 00:39:53;;;;;;;48.67;46.20;;;;;;;;;;5053266;28;20927;-40
2023/09/07 00:42:21;;;;;;;50.87;47.17;;;;;;;;;;5053169;28;20954;-43
2023/09/07 00:44:48;;;;;;;48.33;46.13;;;;;;;;;;5052556;28;20458;-40
2023/09/07 00:47:16;;;;;;;47.10;44.67;;;;;;;;;;5053050;28;20562;-40
2023/09/07 00:49:43;;;;;;;48.83;46.63;;;;;;;;;;5053071;28;20492;-40
2023/09/07 00:52:11;;;;;;;46.50;44.60;;;;;;;;;;5052788;28;20485;-40
2023/09/07 00:54:40;;;;;;;48.53;46.33;;;;;;;;;;5052088;28;20458;-41
2023/09/07 00:57:08;;;;;;;48.33;46.33;;;;;;;;;;5053234;28;20551;-40
2023/09/07 00:59:35;;;;;;;48.90;46.70;;;;;;;;;;5052859;28;20485;-41
2023/09/07 01:02:05;;;;;;;50.80;48.37;;;;;;;;;;5052805;28;20478;-40
2023/09/07 01:04:33;;;;;;;47.80;45.50;;;;;;;;;;5052584;28;20537;-40
2023/09/07 01:07:03;;;;;;;48.07;45.77;;;;;;;;;;5052292;28;20467;-40
2023/09/07 01:09:33;;;;;;;49.17;46.97;;;;;;;;;;5052978;28;20514;-40
2023/09/07 01:12:01;;;;;;;49.77;47.47;;;;;;;;;;5052681;28;20478;-40
2023/09/07 01:14:29;;;;;;;50.53;48.07;;;;;;;;;;5052104;28;20459;-41
2023/09/07 01:16:57;;;;;;;54.37;51.77;;;;;;;;;;5052001;28;20455;-41
2023/09/07 01:19:25;;;;;;;52.43;49.93;;;;;;;;;;5052453;28;20871;-40
2023/09/07 01:21:53;;;;;;;51.60;49.13;;;;;;;;;;5052308;28;20431;-39
2023/09/07 01:27:04;;;;;;;54.47;52.03;;;;;;;;;;5928946;23;21515;-40
2023/09/07 01:29:31;;;;;;;53.43;50.70;;;;;;;;;;5035993;28;20440;-41
2023/09/07 01:31:59;;;;;;;52.23;49.50;;;;;;;;;;5030823;28;20464;-41
2023/09/07 01:34:27;;;;;;;53.43;50.80;;;;;;;;;;5006946;28;20442;-40
2023/09/07 01:36:55;;;;;;;53.20;50.60;;;;;;;;;;5047023;28;20471;-41
2023/09/07 01:39:23;;;;;;;50.87;48.47;;;;;;;;;;5004124;28;20830;-40
2023/09/07 01:41:50;;;;;;;55.07;52.77;;;;;;;;;;4987619;28;20838;-42
2023/09/07 01:44:18;;;;;;;61.17;58.43;;;;;;;;;;4985060;28;20489;-40
2023/09/07 01:51:51;;;;;;;55.07;52.67;;;;;;;17.75;100.00;102416.38;5152702;27;20518;-41
2023/09/07 01:54:17;;;;;;;55.50;53.10;;;;;;;17.76;100.00;102428.84;5118372;28;20431;-41
2023/09/07 01:56:44;;;;;;;57.17;54.57;;;;;;;17.75;100.00;102424.47;5058722;28;20490;-40
2023/09/07 01:59:10;;;;;;;56.00;53.43;;;;;;;17.74;100.00;102420.13;5124018;27;20422;-41
2023/09/07 02:01:38;;;;;;;55.93;53.10;;;;;;;17.77;100.00;102425.13;5138306;27;20439;-41
2023/09/07 02:04:05;;;;;;;57.47;54.87;;;;;;;17.74;100.00;102425.53;5142176;27;20487;-40
2023/09/07 02:06:31;;;;;;;58.07;55.30;;;;;;;17.73;100.00;102426.56;5117735;28;21074;-41
2023/09/07 02:14:02;;;;;;;60.40;57.70;;;;;;;17.68;100.00;102437.97;5157411;27;20529;-41
2023/09/07 02:16:28;;;;;;;56.83;54.23;;;;;;;17.64;100.00;102439.41;5072320;28;20528;-40
2023/09/07 02:19:02;;;;;;;57.90;55.10;;;;;;;17.65;100.00;102443.78;5060849;28;20537;-38
2023/09/07 02:21:28;;;;;;;58.33;55.57;;;;;;;17.63;100.00;102435.84;5106317;28;20478;-41
2023/09/07 02:23:55;;;;;;;59.70;56.80;;;;;;;17.59;100.00;102439.19;5058305;28;20451;-40
2023/09/07 02:26:21;;;;;;;57.77;55.07;;;;;;;17.60;100.00;102433.56;5027369;28;20455;-43
2023/09/07 02:28:47;;;;;;;61.77;58.87;;;;;;;17.60;100.00;102435.44;5055938;28;20458;-39
2023/09/07 02:33:57;;;;;;;61.73;59.03;;;;;;;17.57;100.00;102435.81;5159315;27;20529;-40
2023/09/07 02:36:24;;;;;;;65.87;62.97;;;;;;;17.56;100.00;102437.69;5087974;27;20461;-39
2023/09/07 02:38:50;;;;;;;61.40;58.70;;;;;;;17.54;100.00;102444.28;5060929;28;20455;-41
2023/09/07 02:41:16;;;;;;;62.57;59.67;;;;;;;17.54;100.00;102442.47;5072050;28;20530;-42
2023/09/07 02:43:43;;;;;;;61.87;59.37;;;;;;;17.52;100.00;102433.72;5026990;28;20442;-41
2023/09/07 02:46:09;;;;;;;63.37;60.67;;;;;;;17.51;100.00;102440.13;4997910;28;20564;-41
2023/09/07 02:48:36;;;;;;;62.10;59.43;;;;;;;17.50;100.00;102434.97;5013893;28;20572;-43
2023/09/07 02:57:39;;;;;;;61.47;58.37;;;;;;;17.44;100.00;102441.16;5174004;27;20621;-41
2023/09/07 03:00:10;;;;;;;58.87;56.20;;;;;;;17.43;100.00;102444.88;5134951;27;20428;-41
2023/09/07 03:02:37;;;;;;;62.43;59.53;;;;;;;17.42;100.00;102440.50;5157206;27;20434;-41
2023/09/07 03:05:04;;;;;;;59.00;56.50;;;;;;;17.41;100.00;102444.25;5134392;27;20465;-41
2023/09/07 03:07:33;;;;;;;59.20;56.37;;;;;;;17.38;100.00;102445.47;5109668;28;20958;-43
2023/09/07 03:10:01;;;;;;;59.70;56.80;;;;;;;17.38;100.00;102450.84;5037606;28;1231015;-40
2023/09/07 03:12:28;;;;;;;56.07;53.67;;;;;;;17.37;100.00;102441.13;4888870;28;20444;-41
2023/09/07 03:14:58;;;;;;;59.27;56.10;;;;;;;17.35;100.00;102443.16;4848363;29;20881;-41
2023/09/07 03:17:25;;;;;;;59.10;56.23;;;;;;;17.36;100.00;102446.69;4880124;29;20558;-40
2023/09/07 03:19:53;;;;;;;61.37;58.47;;;;;;;17.35;100.00;102448.56;4874511;29;20542;-42
2023/09/07 03:22:21;;;;;;;61.07;58.17;;;;;;;17.34;100.00;102451.47;4874647;29;20808;-41
2023/09/07 03:24:50;;;;;;;60.53;57.77;;;;;;;17.35;100.00;102453.16;4882054;29;20470;-43
2023/09/07 03:27:18;;;;;;;59.53;56.90;;;;;;;17.35;100.00;102453.94;4874997;29;20463;-42
2023/09/07 03:29:46;;;;;;;60.17;57.60;;;;;;;17.36;100.00;102444.84;4882635;29;20439;-41
2023/09/07 03:32:15;;;;;;;63.53;60.70;;;;;;;17.36;100.00;102450.22;4874677;29;20444;-42
2023/09/07 03:34:42;;;;;;;63.33;60.33;;;;;;;17.37;100.00;102451.06;4874444;29;20533;-43
2023/09/07 03:37:11;;;;;;;62.60;60.00;;;;;;;17.37;100.00;102451.06;4882386;29;20487;-41
2023/09/07 03:39:39;;;;;;;62.23;59.13;;;;;;;17.36;100.00;102444.00;4874997;29;20447;-44
2023/09/07 03:42:07;;;;;;;65.73;62.63;;;;;;;17.35;100.00;102447.75;4874660;29;20508;-42
2023/09/07 03:44:35;;;;;;;64.63;61.57;;;;;;;17.32;100.00;102451.69;4874869;29;20783;-42
2023/09/07 03:47:03;;;;;;;65.93;62.83;;;;;;;17.31;100.00;102455.41;4873917;29;20462;-44
2023/09/07 03:49:33;;;;;;;61.77;58.87;;;;;;;17.31;100.00;102454.56;4874491;29;20451;-41
2023/09/07 03:52:01;;;;;;;65.43;62.33;;;;;;;17.30;100.00;102464.50;4874624;29;20499;-44
2023/09/07 03:54:31;;;;;;;69.23;65.80;;;;;;;17.31;100.00;102459.94;4874349;29;20970;-44
2023/09/07 03:56:59;;;;;;;69.03;65.87;;;;;;;17.28;100.00;102454.97;4873574;29;20475;-43
2023/09/07 03:59:28;;;;;;;67.50;64.10;;;;;;;17.29;100.00;102457.47;4874499;29;20470;-41
2023/09/07 04:01:56;;;;;;;72.10;68.40;;;;;;;17.26;100.00;102460.56;4874130;29;20950;-42
2023/09/07 04:04:24;;;;;;;67.40;63.73;;;;;;;17.26;100.00;102457.88;4881915;29;20977;-43
2023/09/07 04:06:53;;;;;;;72.20;68.43;;;;;;;17.27;100.00;102461.38;4872588;29;20463;-41
2023/09/07 04:09:21;;;;;;;69.30;65.70;;;;;;;17.26;100.00;102462.44;4865620;29;20550;-43
2023/09/07 04:11:49;;;;;;;73.07;68.90;;;;;;;17.27;100.00;102467.59;4865137;29;20877;-43
2023/09/07 04:14:16;;;;;;;70.33;67.03;;;;;;;17.28;100.00;102465.75;4879543;29;20453;-41
2023/09/07 04:16:44;;;;;;;70.80;67.50;;;;;;;17.27;100.00;102464.06;4914793;29;20510;-43
2023/09/07 04:19:12;;;;;;;74.73;70.83;;;;;;;17.28;100.00;102465.75;4917486;29;20521;-42
2023/09/07 04:21:40;;;;;;;77.87;73.57;;;;;;;17.27;100.00;102475.69;4925386;29;20500;-41
2023/09/07 04:24:09;;;;;;;78.73;75.13;;;;;;;17.26;100.00;102465.13;4917366;29;20961;-44
2023/09/07 04:26:38;;;;;;;77.87;73.80;;;;;;;17.28;100.00;102465.75;4909032;29;20459;-41
2023/09/07 04:29:07;;;;;;;78.57;74.63;;;;;;;17.28;100.00;102463.03;4906292;29;20613;-42
2023/09/07 04:31:36;;;;;;;77.77;73.70;;;;;;;17.28;100.00;102473.84;4906591;29;20498;-45
2023/09/07 04:34:03;;;;;;;82.30;78.30;;;;;;;17.29;100.00;102467.41;4900624;29;20442;-41
2023/09/07 04:36:31;;;;;;;80.10;76.00;;;;;;;17.29;100.00;102479.03;4903491;29;20561;-42
2023/09/07 04:38:59;;;;;;;80.07;75.70;;;;;;;17.31;100.00;102478.81;4906140;29;20469;-41
2023/09/07 04:41:28;;;;;;;84.67;80.17;;;;;;;17.31;100.00;102473.44;4903184;29;20481;-41
2023/09/07 04:43:57;;;;;;;81.53;77.20;;;;;;;17.35;100.00;102480.91;4908665;29;20450;-40
2023/09/07 04:46:25;;;;;;;81.40;77.30;;;;;;;17.38;100.00;102477.00;4905545;29;20495;-41
2023/09/07 04:48:52;;;;;;;79.90;74.90;;;;;;;17.41;100.00;102482.81;4905853;29;20466;-41
2023/09/07 04:51:21;;;;;;;78.80;74.50;;;;;;;17.44;100.00;102478.91;4898543;29;20442;-41
2023/09/07 04:53:49;;;;;;;84.10;79.83;;;;;;;17.50;100.00;102484.31;4898625;29;20452;-41
2023/09/07 04:56:21;;;;;;;81.27;76.90;;;;;;;17.57;100.00;102495.19;4905380;29;20466;-41
2023/09/07 04:58:50;;;;;;;84.03;79.63;;;;;;;17.62;100.00;102490.84;4906032;29;20473;-40
2023/09/07 05:01:18;;;;;;;83.63;79.20;;;;;;;17.66;100.00;102491.28;4906126;29;20470;-41
2023/09/07 05:03:46;;;;;;;82.93;78.50;;;;;;;17.74;100.00;102499.19;4905361;29;20442;-41
2023/09/07 05:06:14;;;;;;;80.57;76.07;;;;;;;17.81;100.00;102494.66;4897746;29;21068;-40
2023/09/07 05:08:42;;;;;;;80.17;75.70;;;;;;;17.96;100.00;102494.50;4898002;29;20545;-42
2023/09/07 05:11:10;;;;;;;81.17;76.20;;;;;;;18.09;100.00;102505.34;4900086;29;20477;-41
2023/09/07 05:13:37;;;;;;;77.57;72.90;;;;;;;18.19;100.00;102506.63;4863692;29;20959;-41
2023/09/07 05:16:06;;;;;;;76.63;72.43;;;;;;;18.53;100.00;102504.84;4878891;29;20525;-41
2023/09/07 05:18:34;;;;;;;72.20;67.87;;;;;;;18.67;100.00;102504.63;4878761;29;20496;-42
2023/09/07 05:21:12;;;;;;;73.73;69.87;;;;;;;18.80;100.00;102503.81;4878502;29;20585;-41
2023/09/07 05:23:39;;;;;;;81.10;76.60;;;;;;;18.85;100.00;102504.00;4879049;29;20435;-41
2023/09/07 05:26:07;;;;;;;78.83;75.10;;;;;;;18.83;100.00;102503.41;4878471;29;20463;-40
2023/09/07 05:28:35;;;;;;;84.77;80.37;;;;;;;18.79;100.00;102502.16;4879002;29;20478;-41
2023/09/07 05:31:03;;;;;;;81.37;77.20;;;;;;;18.98;100.00;102498.63;4878917;29;20882;-41
2023/09/07 05:33:33;;;;;;;73.40;69.87;;;;;;;19.38;100.00;102504.78;4879008;29;20478;-40
2023/09/07 05:36:01;;;;;;;66.30;62.30;;;;;;;19.93;100.00;102508.78;4878364;29;20467;-42
2023/09/07 05:38:29;;;;;;;61.17;57.97;;;;;;;20.28;100.00;102503.84;4878584;29;20493;-41
2023/09/07 05:41:00;;;;;;;62.93;59.53;;;;;;;20.88;100.00;102499.59;4879049;29;20445;-42
2023/09/07 05:43:28;;;;;;;64.40;60.97;;;;;;;21.22;100.00;102482.81;4878893;29;20435;-41
2023/09/07 05:45:56;;;;;;;60.20;57.17;;;;;;;21.62;100.00;102485.09;4878243;29;20484;-41
2023/09/07 05:48:23;;;;;;;61.63;58.10;;;;;;;21.99;100.00;102478.56;4878523;29;20459;-42
2023/09/07 05:50:52;;;;;;;58.07;54.70;;;;;;;22.37;100.00;102472.78;4878533;29;20799;-41
2023/09/07 05:53:21;;;;;;;54.80;51.80;;;;;;;22.78;100.00;102478.19;4878775;29;20807;-41
2023/09/07 05:55:48;;;;;;;50.47;47.77;;;;;;;23.22;100.00;102468.59;4878280;29;20467;-44
2023/09/07 05:58:16;;;;;;;51.20;48.10;;;;;;;23.36;100.00;102471.88;4878571;29;20486;-41
2023/09/07 06:00:44;;;;;;;50.63;47.47;;;;;;;23.53;100.00;102467.38;4878772;29;20438;-42
2023/09/07 06:03:12;;;;;;;49.80;46.93;;;;;;;23.82;100.00;102468.22;4878235;29;20503;-42
2023/09/07 06:05:40;;;;;;;51.23;48.33;;;;;;;23.61;100.00;102462.38;4877967;29;20495;-43
2023/09/07 06:08:09;;;;;;;49.10;46.30;;;;;;;23.83;100.00;102472.63;4878262;29;20465;-42
2023/09/07 06:10:37;;;;;;;48.30;45.37;;;;;;;23.91;100.00;102464.03;4881175;29;20533;-42
2023/09/07 06:13:04;;;;;;;48.93;46.23;;;;;;;24.15;100.00;102465.63;4951588;28;20867;-41
2023/09/07 06:15:32;;;;;;;47.67;44.87;;;;;;;24.10;100.00;102455.44;4988979;28;20521;-40
2023/09/07 06:18:00;;;;;;;46.23;43.83;;;;;;;24.27;100.00;102460.09;4984123;28;20487;-41
2023/09/07 06:20:27;;;;;;;46.27;43.50;;;;;;;24.48;100.00;102471.09;4992535;28;20433;-41
2023/09/07 06:22:55;;;;;;;48.77;45.63;;;;;;;25.01;100.00;102461.56;4992350;28;20433;-39
2023/09/07 06:25:24;;;;;;;48.07;45.60;;;;;;;25.26;100.00;102457.31;4980270;28;20493;-40
2023/09/07 06:27:54;;;;;;;48.10;45.30;;;;;;;25.75;100.00;102460.09;4972911;28;20537;-40
2023/09/07 06:30:22;;;;;;;46.10;43.10;;;;;;;25.79;100.00;102461.25;4984480;28;20441;-40
2023/09/07 06:32:51;;;;;;;44.87;42.47;;;;;;;25.93;100.00;102458.94;4984253;28;20439;-41
2023/09/07 06:35:19;;;;;;;42.03;39.83;;;;;;;25.88;100.00;102458.88;4991683;28;20457;-40
2023/09/07 06:37:47;;;;;;;41.17;39.17;;;;;;;26.20;100.00;102463.34;4977276;28;20474;-40
2023/09/07 06:40:15;;;;;;;41.30;39.10;;;;;;;26.51;100.00;102461.72;4983564;28;20438;-40
2023/09/07 06:42:44;;;;;;;42.10;39.80;;;;;;;26.54;100.00;102457.63;4992109;28;20924;-40
2023/09/07 06:45:12;;;;;;;40.90;39.00;;;;;;;26.82;100.00;102449.91;4975835;28;20512;-39
2023/09/07 06:47:40;;;;;;;39.13;37.27;;;;;;;26.66;100.00;102459.09;4991967;28;20899;-39
2023/09/07 06:50:08;;;;;;;39.40;37.30;;;;;;;27.06;100.00;102455.81;4992399;28;20437;-40
2023/09/07 06:52:35;;;;;;;38.43;36.37;;;;;;;27.02;100.00;102460.19;4992459;28;20429;-40
2023/09/07 06:55:04;;;;;;;34.97;33.10;;;;;;;26.78;100.00;102457.00;4991656;28;20457;-40
2023/09/07 06:57:31;;;;;;;30.70;29.10;;;;;;;26.76;100.00;102470.09;4991764;28;20872;-40
2023/09/07 07:00:00;;;;;;;29.47;27.67;;;;;;;26.56;100.00;102467.22;4992764;28;20480;-40
2023/09/07 07:02:28;;;;;;;26.50;25.00;;;;;;;26.30;100.00;102473.56;4992441;28;20766;-42
2023/09/07 07:04:56;;;;;;;25.37;24.07;;;;;;;26.44;100.00;102477.50;4991905;28;20441;-40
2023/09/07 07:07:24;;;;;;;22.90;21.77;;;;;;;26.50;100.00;102467.41;4991871;28;20896;-41
2023/09/07 07:09:52;;;;;;;22.90;21.30;;;;;;;26.24;100.00;102466.38;4992255;28;20433;-40
2023/09/07 07:12:20;;;;;;;22.87;21.57;;;;;;;26.16;100.00;102467.69;4991273;28;20515;-42
2023/09/07 07:14:48;;;;;;;23.53;22.23;;;;;;;25.85;100.00;102465.69;4955813;28;1070867;-39
2023/09/07 07:17:17;;;;;;;22.97;21.47;;;;;;;25.49;100.00;102477.28;5011307;28;20248;-40
2023/09/07 07:19:45;;;;;;;22.90;21.50;;;;;;;25.42;100.00;102465.72;5011508;28;20563;-43
2023/09/07 07:22:13;;;;;;;22.63;21.43;;;;;;;25.55;100.00;102470.81;5011788;28;20527;-42
2023/09/07 07:24:41;;;;;;;22.23;21.10;;;;;;;25.32;100.00;102480.06;4997404;28;20868;-39
2023/09/07 07:27:10;;;;;;;22.27;21.13;;;;;;;25.19;100.00;102470.31;4982084;28;20449;-42
2023/09/07 07:29:38;;;;;;;23.63;22.33;;;;;;;24.71;100.00;102481.00;4980604;28;20430;-41
2023/09/07 07:32:06;;;;;;;23.30;21.80;;;;;;;24.52;100.00;102477.69;4973484;28;20438;-40
2023/09/07 07:34:35;;;;;;;22.10;20.90;;;;;;;24.32;100.00;102488.28;4978927;28;20434;-40
2023/09/07 07:37:03;;;;;;;21.37;20.27;;;;;;;23.94;100.00;102480.72;4988515;28;20480;-42
2023/09/07 07:39:31;;;;;;;23.87;22.17;;;;;;;23.93;100.00;102489.13;4991932;28;20480;-44
2023/09/07 07:41:59;;;;;;;22.50;21.00;;;;;;;23.78;100.00;102491.56;4999575;28;20429;-41
2023/09/07 07:44:27;;;;;;;24.73;22.70;;;;;;;23.97;100.00;102484.88;4995473;28;20438;-40
2023/09/07 07:46:54;;;;;;;22.70;21.47;;;;;;;24.20;100.00;102482.06;4984165;28;20493;-41
2023/09/07 07:49:22;;;;;;;23.07;21.47;;;;;;;24.46;100.00;102488.78;4983680;28;20430;-41
2023/09/07 07:51:55;;;;;;;21.50;20.40;;;;;;;24.72;100.00;102491.69;4984091;28;20538;-42
2023/09/07 07:54:24;;;;;;;21.13;19.90;;;;;;;24.75;100.00;102483.00;4983801;28;20930;-42
2023/09/07 07:56:52;;;;;;;21.67;20.47;;;;;;;24.84;100.00;102490.81;4993352;28;20549;-41
2023/09/07 07:59:20;;;;;;;22.50;21.10;;;;;;;25.08;100.00;102497.72;4994905;28;20477;-40
2023/09/07 08:01:47;;;;;;;24.17;22.50;;;;;;;24.95;100.00;102492.59;4986871;28;20429;-40
2023/09/07 08:04:15;;;;;;;22.20;21.00;;;;;;;24.86;100.00;102484.00;4976856;28;20814;-41
2023/09/07 08:06:43;;;;;;;22.03;20.43;;;;;;;24.61;100.00;102491.78;4988908;28;20461;-42
2023/09/07 08:09:13;;;;;;;23.57;21.90;;;;;;;24.71;100.00;102495.50;4994857;28;20488;-44
2023/09/07 08:11:40;;;;;;;23.50;22.00;;;;;;;24.62;100.00;102487.97;4981621;28;20489;-45
2023/09/07 08:14:08;;;;;;;21.93;20.70;;;;;;;24.55;100.00;102499.03;4983876;28;20446;-43
2023/09/07 08:16:36;;;;;;;23.50;22.03;;;;;;;24.35;100.00;102490.50;4968185;28;20458;-43
2023/09/07 08:19:04;;;;;;;23.50;22.10;;;;;;;24.14;100.00;102485.75;4959373;28;20485;-47
2023/09/07 08:21:33;;;;;;;23.57;21.90;;;;;;;24.15;100.00;102482.81;4967396;28;20521;-41
2023/09/07 08:24:02;;;;;;;22.40;21.10;;;;;;;24.29;100.00;102480.59;4972383;28;20486;-39
2023/09/07 08:26:31;;;;;;;25.40;23.83;;;;;;;24.40;100.00;102487.06;4962616;28;20550;-40
2023/09/07 08:29:04;;;;;;;25.40;23.53;;;;;;;24.39;100.00;102486.22;4963908;28;20450;-43
2023/09/07 08:31:33;;;;;;;24.97;23.17;;;;;;;24.38;100.00;102479.09;4964064;28;20534;-45
2023/09/07 08:34:03;;;;;;;26.33;24.30;;;;;;;24.35;100.00;102478.75;4955639;28;20471;-41
2023/09/07 08:36:33;;;;;;;25.30;23.63;;;;;;;24.25;100.00;102481.34;4959180;28;20458;-43
2023/09/07 08:39:05;;;;;;;26.30;24.70;;;;;;;24.17;100.00;102477.91;4967232;28;20569;-44
2023/09/07 08:41:41;;;;;;;26.67;24.97;;;;;;;24.16;100.00;102481.72;4975024;28;20457;-40
2023/09/07 08:44:28;;;;;;;25.67;24.00;;;;;;;23.85;100.00;102487.63;4971666;28;20445;-43
2023/09/07 08:46:56;;;;;;;27.63;25.63;;;;;;;23.93;100.00;102497.31;4954798;28;20562;-44
2023/09/07 08:49:25;;;;;;;27.67;25.80;;;;;;;23.86;100.00;102497.47;4966647;28;20854;-45
2023/09/07 08:51:55;;;;;;;28.17;26.20;;;;;;;23.61;100.00;102495.06;4975046;28;20441;-44
2023/09/07 08:54:24;;;;;;;29.37;27.37;;;;;;;23.35;100.00;102500.19;4966981;28;20461;-40
2023/09/07 08:56:53;;;;;;;27.00;25.20;;;;;;;23.37;100.00;102501.59;4966165;28;20463;-41
2023/09/07 08:59:21;;;;;;;26.43;24.73;;;;;;;23.39;100.00;102504.09;4972099;28;20473;-43
2023/09/07 09:01:49;;;;;;;28.17;26.10;;;;;;;23.32;100.00;102504.22;4961698;28;20525;-43
2023/09/07 09:04:17;;;;;;;28.73;26.50;;;;;;;23.32;100.00;102503.38;4966846;28;20532;-42
2023/09/07 09:06:44;;;;;;;29.20;27.40;;;;;;;23.58;100.00;102503.72;4973890;28;20889;-42
2023/09/07 09:09:24;;;;;;;30.27;28.07;;;;;;;23.60;100.00;102503.47;4965183;28;20450;-42
2023/09/07 09:11:53;;;;;;;27.10;25.30;;;;;;;23.44;100.00;102496.88;4961683;28;20995;-44
2023/09/07 09:14:22;;;;;;;31.20;29.20;;;;;;;23.56;100.00;102502.31;4958062;28;20469;-41
2023/09/07 09:16:51;;;;;;;31.43;29.17;;;;;;;23.34;100.00;102503.94;4973200;28;21049;-42
2023/09/07 09:19:19;;;;;;;29.70;27.73;;;;;;;23.74;100.00;102506.75;4958252;28;20483;-44
2023/09/07 09:21:48;;;;;;;29.93;27.73;;;;;;;23.78;100.00;102507.91;4960438;28;20502;-41
2023/09/07 09:24:18;;;;;;;30.93;28.57;;;;;;;23.89;100.00;102498.88;4969815;28;20434;-40
2023/09/07 09:26:46;;;;;;;29.50;27.40;;;;;;;24.01;100.00;102502.41;4967755;28;20467;-42
2023/09/07 09:29:15;;;;;;;31.23;29.13;;;;;;;24.02;100.00;102496.69;4963963;28;20554;-43
2023/09/07 09:31:45;;;;;;;31.17;29.17;;;;;;;24.10;100.00;102490.88;4968563;28;20917;-41
2023/09/07 09:34:13;;;;;;;30.83;28.83;;;;;;;24.15;100.00;102495.59;4955830;28;20483;-42
2023/09/07 09:36:43;;;;;;;31.27;29.00;;;;;;;24.10;100.00;102507.22;4968419;28;20464;-41
2023/09/07 09:39:12;;;;;;;31.10;28.80;;;;;;;24.09;100.00;102504.72;4954678;28;20550;-44
2023/09/07 09:41:40;;;;;;;28.00;26.00;;;;;;;24.14;100.00;102500.22;4959379;28;20441;-42
2023/09/07 09:44:09;;;;;;;28.87;26.90;;;;;;;24.33;100.00;102500.84;4965660;28;20799;-42
2023/09/07 09:46:40;;;;;;;29.20;27.17;;;;;;;24.30;100.00;102493.16;4968659;28;20464;-45
2023/09/07 09:49:11;;;;;;;29.33;27.23;;;;;;;24.24;100.00;102494.13;4954345;28;20459;-42
2023/09/07 09:51:40;;;;;;;30.03;27.93;;;;;;;24.25;100.00;102486.78;4954428;28;20486;-45
2023/09/07 09:54:12;;;;;;;29.33;27.03;;;;;;;24.37;100.00;102491.06;4954382;28;20518;-41
2023/09/07 09:56:40;;;;;;;31.13;29.13;;;;;;;24.34;100.00;102488.03;4961578;28;20546;-45
2023/09/07 09:59:07;;;;;;;31.00;28.90;;;;;;;24.27;100.00;102484.63;4954263;28;20459;-43
2023/09/07 10:01:44;;;;;;;31.77;29.33;;;;;;;24.25;100.00;102475.88;4969543;28;20518;-42
2023/09/07 10:04:15;;;;;;;30.07;28.07;;;;;;;24.36;100.00;102485.88;4962079;28;20470;-43
2023/09/07 10:06:52;;;;;;;30.40;28.40;;;;;;;24.37;100.00;102473.91;4953190;28;20483;-45
2023/09/07 10:09:20;;;;;;;27.87;26.03;;;;;;;24.49;100.00;102472.75;4963975;28;20489;-42
2023/09/07 10:11:53;;;;;;;28.93;26.97;;;;;;;24.57;100.00;102474.25;4973404;28;20446;-44
2023/09/07 10:14:22;;;;;;;27.20;25.40;;;;;;;24.58;100.00;102465.81;4965161;28;20822;-43
2023/09/07 10:16:55;;;;;;;30.10;27.90;;;;;;;24.53;100.00;102470.34;4964454;28;20497;-46
2023/09/07 10:19:25;;;;;;;30.17;27.93;;;;;;;24.44;100.00;102459.03;4964948;28;20434;-41
2023/09/07 10:21:55;;;;;;;31.60;29.20;;;;;;;24.61;100.00;102464.50;4959051;28;20435;-40
2023/09/07 10:24:27;;;;;;;31.73;29.30;;;;;;;24.58;100.00;102473.97;4961667;28;20447;-42
2023/09/07 10:27:02;;;;;;;29.83;27.77;;;;;;;24.61;100.00;102468.03;4959358;28;20541;-43
2023/09/07 10:29:29;;;;;;;30.37;27.97;;;;;;;24.49;100.00;102461.03;4964961;28;20842;-43
2023/09/07 10:32:06;;;;;;;28.93;26.57;;;;;;;24.68;100.00;102465.97;4966252;28;20529;-41
2023/09/07 10:34:39;;;;;;;29.50;27.20;;;;;;;24.72;100.00;102467.13;4957494;28;20453;-45
2023/09/07 10:37:08;;;;;;;28.70;26.80;;;;;;;24.79;100.00;102467.78;4964312;28;20454;-46
2023/09/07 10:39:36;;;;;;;26.93;25.03;;;;;;;24.79;100.00;102467.78;4957512;28;20438;-40
2023/09/07 10:42:05;;;;;;;29.70;27.30;;;;;;;24.90;100.00;102459.78;4965007;28;20439;-45
2023/09/07 10:44:32;;;;;;;31.03;28.83;;;;;;;24.97;100.00;102452.25;4953394;28;20923;-43
2023/09/07 10:47:04;;;;;;;28.87;27.00;;;;;;;24.95;100.00;102454.41;4952851;28;20467;-46
2023/09/07 10:49:32;;;;;;;29.77;27.73;;;;;;;24.95;100.00;102459.84;4961712;28;20439;-41
2023/09/07 10:52:00;;;;;;;32.40;30.07;;;;;;;24.99;100.00;102471.94;4960545;28;20442;-41
2023/09/07 10:54:28;;;;;;;30.57;28.37;;;;;;;24.92;100.00;102457.63;4962021;28;20437;-42
2023/09/07 10:56:57;;;;;;;31.77;29.37;;;;;;;24.94;100.00;102463.69;4960549;28;20459;-47
2023/09/07 10:59:28;;;;;;;30.37;28.07;;;;;;;25.01;100.00;102451.50;4963769;28;20523;-44
2023/09/07 11:02:05;;;;;;;28.73;26.60;;;;;;;24.91;100.00;102448.59;4958440;28;20435;-41
2023/09/07 11:04:33;;;;;;;27.93;26.03;;;;;;;24.88;100.00;102435.47;4953381;28;20443;-43
2023/09/07 11:07:02;;;;;;;29.80;27.60;;;;;;;25.01;100.00;102440.56;4960445;28;20471;-44
2023/09/07 11:09:31;;;;;;;30.57;28.43;;;;;;;24.91;100.00;102436.88;4961334;28;20431;-43
2023/09/07 11:12:04;;;;;;;30.43;28.43;;;;;;;25.00;100.00;102435.38;4968190;28;20430;-42
2023/09/07 11:14:32;;;;;;;29.07;26.97;;;;;;;25.13;100.00;102435.81;4972428;28;20446;-42
2023/09/07 11:17:03;;;;;;;29.10;27.10;;;;;;;25.16;100.00;102431.75;4971842;28;20524;-43
2023/09/07 11:19:34;;;;;;;33.30;30.77;;;;;;;25.18;100.00;102433.16;4960428;28;20489;-41
2023/09/07 11:22:04;;;;;;;33.00;30.40;;;;;;;25.17;100.00;102433.44;4976342;28;20485;-43
2023/09/07 11:24:33;;;;;;;29.07;26.93;;;;;;;25.02;100.00;102441.41;4965223;28;20485;-41
2023/09/07 11:27:02;;;;;;;28.20;26.30;;;;;;;25.05;100.00;102432.72;4964255;28;20526;-44
2023/09/07 11:29:32;;;;;;;29.77;27.67;;;;;;;25.01;100.00;102434.28;4956846;28;20439;-41
2023/09/07 11:32:07;;;;;;;30.23;27.73;;;;;;;25.12;100.00;102428.72;4956921;28;20427;-43
2023/09/07 11:34:36;;;;;;;30.53;28.40;;;;;;;24.95;100.00;102425.19;4967993;28;20441;-41
2023/09/07 11:37:04;;;;;;;28.00;25.80;;;;;;;25.09;100.00;102421.03;4960427;28;20443;-41
2023/09/07 11:39:32;;;;;;;28.50;26.30;;;;;;;25.06;100.00;102423.47;4975972;28;20514;-44
2023/09/07 11:41:59;;;;;;;30.10;27.90;;;;;;;24.96;100.00;102421.41;4961497;28;20503;-41
2023/09/07 11:44:27;;;;;;;30.97;28.23;;;;;;;25.05;100.00;102427.25;4958795;28;20494;-41
2023/09/07 11:46:55;;;;;;;29.97;27.87;;;;;;;24.90;100.00;102432.50;4974959;28;20486;-41
2023/09/07 11:49:23;;;;;;;27.10;25.10;;;;;;;24.94;100.00;102425.47;4974410;28;20465;-42
2023/09/07 11:51:52;;;;;;;28.30;26.10;;;;;;;24.87;100.00;102422.09;4964725;28;20745;-41